Time;durP1;ratioP1;P1;durP2;ratioP2;P2;SDS_P1;SDS_P2;PMS_P1;PMS_P2;Temp;Humidity;BMP_temperature;BMP_pressure;BME280_temperature;BME280_humidity;BME280_pressure;Samples;Min_cycle;Max_cycle;Signal;HPM_P1;HPM_P2
2021/04/15 00:01:11;;;;;;;;;;;17.00;59.00;;;;;;4969276;28;19923;-83
2021/04/15 00:03:37;;;;;;;;;;;16.90;58.90;;;;;;4968063;28;19914;-83
2021/04/15 00:06:22;;;;;;;;;;;16.90;58.90;;;;;;4970930;28;19921;-85
2021/04/15 00:08:48;;;;;;;;;;;17.00;59.00;;;;;;4971372;28;19920;-83
2021/04/15 00:11:17;;;;;;;;;;;16.90;59.00;;;;;;4971526;28;19914;-83
2021/04/15 00:13:44;;;;;;;;;;;17.00;59.00;;;;;;4969764;28;19985;-84
2021/04/15 00:16:10;;;;;;;;;;;16.90;59.00;;;;;;4971062;28;19914;-83
2021/04/15 00:18:36;;;;;;;;;;;16.90;59.00;;;;;;4967457;28;19945;-83
2021/04/15 00:21:03;;;;;;;;;;;16.90;59.00;;;;;;4968030;28;19929;-83
2021/04/15 00:23:29;;;;;;;;;;;16.90;58.90;;;;;;4966208;28;20363;-83
2021/04/15 00:25:55;;;;;;;;;;;16.90;59.00;;;;;;4971037;28;19914;-84
2021/04/15 00:28:21;;;;;;;;;;;16.90;59.00;;;;;;4973482;28;20371;-83
2021/04/15 00:30:47;;;;;;;;;;;17.00;59.00;;;;;;4967613;28;19914;-84
2021/04/15 00:33:13;;;;;;;;;;;16.90;59.00;;;;;;4968015;28;19988;-83
2021/04/15 00:35:39;;;;;;;;;;;16.90;59.00;;;;;;4964261;28;20360;-83
2021/04/15 00:38:05;;;;;;;;;;;16.90;59.00;;;;;;4961133;28;19914;-83
2021/04/15 00:40:31;;;;;;;;;;;16.90;59.00;;;;;;4971421;28;19919;-83
2021/04/15 00:42:57;;;;;;;;;;;16.90;59.00;;;;;;4971526;28;20051;-83
2021/04/15 00:45:24;;;;;;;;;;;16.90;59.00;;;;;;4967970;28;20009;-82
2021/04/15 00:47:56;;;;;;;;;;;16.90;59.00;;;;;;4972631;28;20416;-83
2021/04/15 00:50:28;;;;;;;;;;;16.90;59.00;;;;;;5001849;28;20259;-83
2021/04/15 00:52:55;;;;;;;;;;;16.90;59.00;;;;;;4965226;28;19918;-84
2021/04/15 00:55:22;;;;;;;;;;;16.90;58.90;;;;;;4968703;28;19925;-82
2021/04/15 00:57:49;;;;;;;;;;;16.90;58.90;;;;;;4974043;28;19949;-82
2021/04/15 01:00:16;;;;;;;;;;;16.90;59.00;;;;;;4973754;28;19914;-83
2021/04/15 01:02:42;;;;;;;;;;;16.90;59.00;;;;;;4962650;28;19922;-83
2021/04/15 01:05:12;;;;;;;;;;;16.90;59.00;;;;;;4965505;28;19927;-82
2021/04/15 01:07:41;;;;;;;;;;;16.90;58.90;;;;;;4967986;28;20009;-83
2021/04/15 01:10:07;;;;;;;;;;;16.80;58.90;;;;;;4972521;28;19957;-83
2021/04/15 01:12:43;;;;;;;;;;;16.90;58.90;;;;;;4976586;28;19918;-83
2021/04/15 01:15:15;;;;;;;;;;;16.90;58.90;;;;;;4976987;28;19921;-83
2021/04/15 01:17:53;;;;;;;;;;;16.90;59.00;;;;;;4976261;28;19926;-85
2021/04/15 01:20:21;;;;;;;;;;;16.90;58.90;;;;;;4972516;28;20374;-83
2021/04/15 01:23:01;;;;;;;;;;;16.90;59.00;;;;;;4970935;28;19914;-84
2021/04/15 01:25:26;;;;;;;;;;;16.90;58.90;;;;;;4967476;28;20366;-84
2021/04/15 01:27:55;;;;;;;;;;;16.90;58.90;;;;;;4976119;28;19922;-84
2021/04/15 01:30:28;;;;;;;;;;;16.90;58.90;;;;;;4973231;28;19922;-83
2021/04/15 01:32:59;;;;;;;;;;;16.90;58.90;;;;;;4970897;28;20325;-83
2021/04/15 01:35:32;;;;;;;;;;;16.90;58.90;;;;;;4967710;28;19918;-83
2021/04/15 01:38:15;;;;;;;;;;;16.90;58.90;;;;;;4971747;28;19922;-84
2021/04/15 01:40:50;;;;;;;;;;;16.90;58.90;;;;;;4982245;28;19964;-84
2021/04/15 01:43:22;;;;;;;;;;;16.80;58.90;;;;;;4964190;28;20256;-83
2021/04/15 01:45:50;;;;;;;;;;;16.90;58.90;;;;;;4973200;28;19925;-83
2021/04/15 01:48:23;;;;;;;;;;;16.80;58.90;;;;;;4974050;28;19914;-82
2021/04/15 01:50:54;;;;;;;;;;;16.80;58.90;;;;;;4985316;28;19938;-85
2021/04/15 01:53:25;;;;;;;;;;;16.90;58.90;;;;;;4971875;28;19918;-83
2021/04/15 01:55:56;;;;;;;;;;;16.80;58.90;;;;;;4971033;28;20021;-82
2021/04/15 01:58:28;;;;;;;;;;;16.80;58.90;;;;;;4966590;28;19918;-83
2021/04/15 02:01:00;;;;;;;;;;;16.80;58.90;;;;;;4969850;28;19914;-84
2021/04/15 02:03:31;;;;;;;;;;;16.80;58.90;;;;;;4971477;28;19914;-83
2021/04/15 02:06:01;;;;;;;;;;;16.80;58.90;;;;;;4971917;28;20311;-84
2021/04/15 02:08:30;;;;;;;;;;;16.80;58.90;;;;;;4968792;28;19915;-83
2021/04/15 02:11:05;;;;;;;;;;;16.80;58.90;;;;;;4971601;28;20374;-84
2021/04/15 02:13:32;;;;;;;;;;;16.80;58.90;;;;;;4972016;28;19926;-84
2021/04/15 02:15:59;;;;;;;;;;;16.80;58.90;;;;;;4969494;28;19914;-83
2021/04/15 02:18:27;;;;;;;;;;;16.80;58.90;;;;;;4976771;28;19968;-83
2021/04/15 02:20:54;;;;;;;;;;;16.80;58.90;;;;;;4969605;28;19918;-83
2021/04/15 02:23:20;;;;;;;;;;;16.80;58.90;;;;;;4966560;28;19915;-83
2021/04/15 02:25:52;;;;;;;;;;;16.80;58.90;;;;;;4964784;28;19921;-83
2021/04/15 02:28:41;;;;;;;;;;;16.80;59.00;;;;;;4970902;28;19921;-83
2021/04/15 02:31:09;;;;;;;;;;;16.80;58.90;;;;;;4972395;28;20287;-83
2021/04/15 02:33:41;;;;;;;;;;;16.80;58.90;;;;;;4969854;28;20359;-83
2021/04/15 02:36:07;;;;;;;;;;;16.80;58.90;;;;;;4964001;28;19925;-83
2021/04/15 02:38:53;;;;;;;;;;;16.80;58.90;;;;;;4981573;28;19921;-83
2021/04/15 02:41:24;;;;;;;;;;;16.80;59.00;;;;;;4984442;28;19921;-84
2021/04/15 02:43:56;;;;;;;;;;;16.80;58.90;;;;;;4976694;28;20375;-83
2021/04/15 02:46:25;;;;;;;;;;;16.80;59.00;;;;;;4966676;28;19926;-83
2021/04/15 02:48:51;;;;;;;;;;;16.80;58.90;;;;;;4969082;28;19925;-83
2021/04/15 02:51:18;;;;;;;;;;;16.80;58.90;;;;;;5003184;28;19914;-83
2021/04/15 02:53:50;;;;;;;;;;;16.80;58.90;;;;;;4962641;28;19925;-84
2021/04/15 02:56:20;;;;;;;;;;;16.80;58.90;;;;;;4970784;28;19918;-83
2021/04/15 02:58:49;;;;;;;;;;;16.80;58.90;;;;;;4968750;28;20363;-83
2021/04/15 03:01:16;;;;;;;;;;;16.80;58.90;;;;;;4968930;28;19918;-83
2021/04/15 03:03:43;;;;;;;;;;;16.80;59.00;;;;;;4968561;28;19915;-83
2021/04/15 03:06:10;;;;;;;;;;;16.80;58.90;;;;;;4970317;28;19914;-83
2021/04/15 03:08:37;;;;;;;;;;;16.80;58.90;;;;;;4968310;28;19914;-83
2021/04/15 03:11:15;;;;;;;;;;;16.80;58.90;;;;;;5000561;28;20336;-83
2021/04/15 03:13:43;;;;;;;;;;;16.80;58.90;;;;;;4972646;28;19926;-83
2021/04/15 03:16:09;;;;;;;;;;;16.80;58.90;;;;;;4968417;28;19983;-84
2021/04/15 03:18:41;;;;;;;;;;;16.80;58.90;;;;;;4968292;28;20375;-83
2021/04/15 03:21:25;;;;;;;;;;;16.80;58.90;;;;;;4967782;28;20374;-84
2021/04/15 03:23:55;;;;;;;;;;;16.80;58.90;;;;;;4975969;28;19929;-83
2021/04/15 03:26:37;;;;;;;;;;;16.80;58.90;;;;;;4959889;28;19923;-84
2021/04/15 03:29:05;;;;;;;;;;;16.80;58.90;;;;;;4973092;28;19996;-83
2021/04/15 03:31:34;;;;;;;;;;;16.80;58.90;;;;;;4965749;28;19929;-83
2021/04/15 03:34:06;;;;;;;;;;;16.80;58.90;;;;;;4969957;28;19965;-83
2021/04/15 03:36:37;;;;;;;;;;;16.80;58.90;;;;;;4971876;28;19918;-83
2021/04/15 03:39:08;;;;;;;;;;;16.80;58.90;;;;;;4971117;28;19914;-82
2021/04/15 03:41:36;;;;;;;;;;;16.80;58.90;;;;;;4961675;28;19914;-83
2021/04/15 03:44:09;;;;;;;;;;;16.80;58.90;;;;;;4971265;28;19981;-83
2021/04/15 03:46:41;;;;;;;;;;;16.80;58.90;;;;;;4983646;28;20021;-83
2021/04/15 03:49:10;;;;;;;;;;;16.80;58.90;;;;;;4968102;28;19914;-85
2021/04/15 03:51:39;;;;;;;;;;;16.70;58.90;;;;;;4967527;28;20020;-84
2021/04/15 03:54:09;;;;;;;;;;;16.80;58.90;;;;;;4998926;28;19941;-85
2021/04/15 03:56:38;;;;;;;;;;;16.80;58.90;;;;;;4966029;28;19915;-84
2021/04/15 03:59:10;;;;;;;;;;;16.80;58.90;;;;;;4970515;28;19921;-84
2021/04/15 04:01:47;;;;;;;;;;;16.80;58.90;;;;;;4984673;28;19915;-84
2021/04/15 04:04:15;;;;;;;;;;;16.80;58.90;;;;;;4968464;28;19914;-84
2021/04/15 04:06:43;;;;;;;;;;;16.70;58.90;;;;;;4969496;28;19930;-83
2021/04/15 04:09:14;;;;;;;;;;;16.80;59.00;;;;;;4966676;28;19972;-83
2021/04/15 04:11:41;;;;;;;;;;;16.80;59.00;;;;;;4969110;28;19940;-84
2021/04/15 04:14:12;;;;;;;;;;;16.70;59.00;;;;;;4964437;28;20017;-84
2021/04/15 04:16:40;;;;;;;;;;;16.80;59.00;;;;;;4966178;28;20029;-84
2021/04/15 04:19:26;;;;;;;;;;;16.70;59.00;;;;;;4969960;28;19914;-84
2021/04/15 04:21:54;;;;;;;;;;;16.80;59.00;;;;;;4966342;28;20279;-84
2021/04/15 04:24:29;;;;;;;;;;;16.70;59.00;;;;;;4981109;28;20371;-84
2021/04/15 04:27:00;;;;;;;;;;;16.70;59.00;;;;;;4977819;28;19983;-84
2021/04/15 04:29:25;;;;;;;;;;;16.70;59.00;;;;;;4981181;28;20565;-84
2021/04/15 04:31:53;;;;;;;;;;;16.70;59.00;;;;;;4968743;28;19922;-85
2021/04/15 04:34:20;;;;;;;;;;;16.70;59.00;;;;;;4969594;28;20019;-84
2021/04/15 04:36:46;;;;;;;;;;;16.70;59.00;;;;;;5003090;28;20376;-85
2021/04/15 04:39:13;;;;;;;;;;;16.80;59.00;;;;;;4966620;28;19919;-84
2021/04/15 04:41:56;;;;;;;;;;;16.80;59.00;;;;;;4967798;28;20037;-84
2021/04/15 04:44:28;;;;;;;;;;;16.80;59.00;;;;;;4963141;28;20448;-84
2021/04/15 04:47:02;;;;;;;;;;;16.80;59.00;;;;;;4969654;28;19929;-85
2021/04/15 04:49:28;;;;;;;;;;;16.70;59.00;;;;;;4970721;28;19921;-84
2021/04/15 04:51:56;;;;;;;;;;;16.80;59.00;;;;;;4970793;28;19918;-84
2021/04/15 04:54:22;;;;;;;;;;;16.70;59.00;;;;;;4956803;28;19923;-84
2021/04/15 04:56:58;;;;;;;;;;;16.80;58.90;;;;;;4987288;28;19936;-84
2021/04/15 04:59:26;;;;;;;;;;;16.80;59.00;;;;;;4961594;28;19968;-84
2021/04/15 05:01:51;;;;;;;;;;;16.80;58.90;;;;;;4968667;28;20445;-84
2021/04/15 05:04:21;;;;;;;;;;;16.80;58.90;;;;;;4968592;28;19951;-83
2021/04/15 05:06:47;;;;;;;;;;;16.70;58.90;;;;;;4966574;28;19915;-84
2021/04/15 05:09:15;;;;;;;;;;;16.80;58.90;;;;;;4989890;28;19921;-84
2021/04/15 05:11:42;;;;;;;;;;;16.70;58.90;;;;;;4969128;28;19956;-84
2021/04/15 05:14:08;;;;;;;;;;;16.80;58.90;;;;;;4966613;28;19926;-85
2021/04/15 05:16:38;;;;;;;;;;;16.80;58.90;;;;;;4958166;28;19915;-85
2021/04/15 05:19:04;;;;;;;;;;;16.80;58.90;;;;;;4970067;28;19914;-85
2021/04/15 05:21:31;;;;;;;;;;;16.80;58.80;;;;;;4983602;28;20287;-85
2021/04/15 05:24:07;;;;;;;;;;;16.80;58.80;;;;;;4967463;28;19922;-84
2021/04/15 05:26:34;;;;;;;;;;;16.80;58.80;;;;;;4969693;28;19921;-84
2021/04/15 05:29:00;;;;;;;;;;;16.80;58.70;;;;;;4987571;28;19942;-85
2021/04/15 05:31:27;;;;;;;;;;;16.80;58.80;;;;;;4973382;28;19921;-83
2021/04/15 05:33:53;;;;;;;;;;;16.80;58.80;;;;;;4973750;28;19924;-85
2021/04/15 05:36:22;;;;;;;;;;;16.80;58.70;;;;;;4971889;28;19914;-84
2021/04/15 05:38:49;;;;;;;;;;;16.80;58.70;;;;;;4974913;28;22199;-83
2021/04/15 05:41:18;;;;;;;;;;;16.80;58.70;;;;;;4996240;28;19914;-84
2021/04/15 05:43:43;;;;;;;;;;;16.80;58.70;;;;;;4973934;28;20295;-84
2021/04/15 05:46:15;;;;;;;;;;;16.80;58.70;;;;;;4980234;28;19976;-83
2021/04/15 05:48:42;;;;;;;;;;;16.80;58.60;;;;;;4956325;28;19915;-84
2021/04/15 05:51:10;;;;;;;;;;;16.80;58.60;;;;;;5001182;28;19964;-83
2021/04/15 05:53:37;;;;;;;;;;;16.80;58.60;;;;;;4970685;28;19918;-84
2021/04/15 05:56:15;;;;;;;;;;;16.80;58.50;;;;;;4968269;28;19922;-84
2021/04/15 05:58:46;;;;;;;;;;;16.80;58.50;;;;;;4973315;28;19914;-84
2021/04/15 06:01:17;;;;;;;;;;;16.80;58.40;;;;;;5002452;28;20364;-84
2021/04/15 06:03:50;;;;;;;;;;;16.80;58.50;;;;;;4968374;28;20264;-83
2021/04/15 06:06:18;;;;;;;;;;;16.80;58.50;;;;;;4966497;28;20074;-82
2021/04/15 06:08:45;;;;;;;;;;;16.90;58.40;;;;;;4985021;28;19914;-86
2021/04/15 06:11:25;;;;;;;;;;;16.80;58.30;;;;;;5004695;28;19914;-83
2021/04/15 06:13:59;;;;;;;;;;;16.90;58.30;;;;;;4990465;28;19922;-85
2021/04/15 06:16:29;;;;;;;;;;;16.90;58.30;;;;;;4964500;28;20006;-84
2021/04/15 06:19:00;;;;;;;;;;;16.90;58.20;;;;;;4970076;28;19910;-86
2021/04/15 06:21:27;;;;;;;;;;;16.90;58.20;;;;;;4983755;28;19915;-84
2021/04/15 06:23:53;;;;;;;;;;;16.90;58.20;;;;;;4969584;28;19919;-82
2021/04/15 06:26:24;;;;;;;;;;;16.90;58.10;;;;;;4969193;28;19996;-81
2021/04/15 06:28:50;;;;;;;;;;;16.90;58.10;;;;;;4965798;28;19979;-82
2021/04/15 06:31:18;;;;;;;;;;;16.90;58.10;;;;;;4970587;28;20287;-82
2021/04/15 06:33:44;;;;;;;;;;;17.00;58.00;;;;;;4969504;28;20036;-84
2021/04/15 06:36:30;;;;;;;;;;;16.90;58.00;;;;;;4970107;28;19954;-83
2021/04/15 06:38:57;;;;;;;;;;;17.00;58.00;;;;;;4962802;28;19964;-82
2021/04/15 06:41:29;;;;;;;;;;;17.00;57.90;;;;;;4967781;28;20363;-83
2021/04/15 06:43:58;;;;;;;;;;;17.00;57.90;;;;;;4984349;28;19921;-83
2021/04/15 06:46:29;;;;;;;;;;;17.00;57.80;;;;;;4967582;28;19952;-83
2021/04/15 06:49:04;;;;;;;;;;;17.00;57.80;;;;;;4971235;28;19965;-84
2021/04/15 06:51:33;;;;;;;;;;;17.00;57.80;;;;;;4982850;28;19922;-84
2021/04/15 06:54:01;;;;;;;;;;;17.10;57.70;;;;;;4970535;28;20293;-82
2021/04/15 06:56:28;;;;;;;;;;;17.00;57.70;;;;;;4970660;28;19922;-82
2021/04/15 06:59:06;;;;;;;;;;;17.10;57.60;;;;;;4963044;28;19918;-82
2021/04/15 07:01:39;;;;;;;;;;;17.10;57.60;;;;;;4966369;28;19919;-82
2021/04/15 07:04:10;;;;;;;;;;;17.10;57.50;;;;;;4968957;28;19925;-82
2021/04/15 07:06:58;;;;;;;;;;;17.10;57.50;;;;;;4968104;28;20367;-82
2021/04/15 07:09:33;;;;;;;;;;;17.10;57.50;;;;;;4985969;28;19915;-82
2021/04/15 07:12:18;;;;;;;;;;;17.10;57.50;;;;;;4958221;28;19930;-82
2021/04/15 07:14:43;;;;;;;;;;;17.10;57.40;;;;;;4984278;28;19942;-82
2021/04/15 07:17:27;;;;;;;;;;;17.20;57.40;;;;;;4959714;28;20287;-83
2021/04/15 07:20:01;;;;;;;;;;;17.20;57.30;;;;;;4978568;28;20072;-82
2021/04/15 07:22:36;;;;;;;;;;;17.20;57.20;;;;;;4971402;28;19914;-82
2021/04/15 07:25:08;;;;;;;;;;;17.20;57.30;;;;;;4973234;28;20060;-80
2021/04/15 07:27:53;;;;;;;;;;;17.20;57.20;;;;;;4969349;28;19914;-81
2021/04/15 07:30:25;;;;;;;;;;;17.20;57.30;;;;;;4967685;28;19937;-81
2021/04/15 07:32:54;;;;;;;;;;;17.20;57.20;;;;;;4967804;28;20451;-81
2021/04/15 07:35:26;;;;;;;;;;;17.20;57.30;;;;;;4970478;28;19945;-81
2021/04/15 07:38:04;;;;;;;;;;;17.20;57.30;;;;;;4968021;28;19922;-81
2021/04/15 07:40:51;;;;;;;;;;;17.10;57.40;;;;;;4967005;28;19947;-81
2021/04/15 07:43:19;;;;;;;;;;;17.10;57.40;;;;;;4976934;28;19926;-80
2021/04/15 07:46:05;;;;;;;;;;;17.10;57.50;;;;;;4965077;28;20320;-81
2021/04/15 07:48:33;;;;;;;;;;;17.10;57.50;;;;;;4970337;28;19948;-81
2021/04/15 07:51:17;;;;;;;;;;;17.10;57.50;;;;;;4968382;28;19918;-81
2021/04/15 07:54:07;;;;;;;;;;;17.10;57.50;;;;;;4965869;28;19927;-79
2021/04/15 07:56:41;;;;;;;;;;;17.10;57.40;;;;;;4968534;28;20275;-81
2021/04/15 07:59:25;;;;;;;;;;;17.20;57.40;;;;;;4976998;28;19922;-81
2021/04/15 08:01:50;;;;;;;;;;;17.20;57.30;;;;;;4976009;28;20391;-81
2021/04/15 08:04:34;;;;;;;;;;;17.20;57.30;;;;;;4962415;28;20013;-80
2021/04/15 08:07:19;;;;;;;;;;;17.20;57.30;;;;;;4969185;28;19992;-80
2021/04/15 08:10:03;;;;;;;;;;;17.30;57.20;;;;;;4963972;28;19929;-80
2021/04/15 08:12:31;;;;;;;;;;;17.30;57.10;;;;;;4974856;28;20324;-81
2021/04/15 08:15:16;;;;;;;;;;;17.30;57.00;;;;;;4977415;28;19926;-80
2021/04/15 08:18:02;;;;;;;;;;;17.30;56.90;;;;;;4963222;28;19975;-80
2021/04/15 08:20:47;;;;;;;;;;;17.30;56.90;;;;;;4965356;28;21211;-80
2021/04/15 08:23:31;;;;;;;;;;;17.30;57.00;;;;;;4966414;28;19914;-80
2021/04/15 08:25:56;;;;;;;;;;;17.30;57.00;;;;;;4980349;28;19922;-80
2021/04/15 08:28:37;;;;;;;;;;;17.30;57.00;;;;;;4966131;28;19921;-80
2021/04/15 08:31:05;;;;;;;;;;;17.30;57.00;;;;;;4965025;28;19937;-81
2021/04/15 08:33:34;;;;;;;;;;;17.30;57.10;;;;;;4965954;28;19926;-81
2021/04/15 08:36:02;;;;;;;;;;;17.20;57.10;;;;;;4963416;28;20017;-80
2021/04/15 08:38:34;;;;;;;;;;;17.20;57.10;;;;;;4965079;28;19915;-79
2021/04/15 08:41:18;;;;;;;;;;;17.30;57.10;;;;;;4969453;28;19941;-80
2021/04/15 08:44:11;;;;;;;;;;;17.20;57.10;;;;;;4976440;28;19960;-81
2021/04/15 08:46:49;;;;;;;;;;;17.20;57.20;;;;;;4960915;28;19968;-80
2021/04/15 08:49:17;;;;;;;;;;;17.20;57.20;;;;;;4962647;28;20299;-80
2021/04/15 08:51:46;;;;;;;;;;;17.20;57.20;;;;;;4978828;28;19918;-80
2021/04/15 08:54:19;;;;;;;;;;;17.20;57.30;;;;;;4965170;28;20294;-81
2021/04/15 08:56:47;;;;;;;;;;;17.20;57.30;;;;;;4967431;28;19915;-80
2021/04/15 08:59:31;;;;;;;;;;;17.20;57.30;;;;;;4958991;28;20393;-80
2021/04/15 09:02:13;;;;;;;;;;;17.20;57.30;;;;;;4968461;28;19918;-81
2021/04/15 09:04:54;;;;;;;;;;;17.20;57.30;;;;;;4969385;28;19919;-80
2021/04/15 09:07:23;;;;;;;;;;;17.20;57.30;;;;;;4970109;28;19913;-80
2021/04/15 09:10:00;;;;;;;;;;;17.20;57.20;;;;;;4968046;28;19925;-81
2021/04/15 09:12:49;;;;;;;;;;;17.30;57.10;;;;;;4969854;28;19991;-81
2021/04/15 09:15:25;;;;;;;;;;;17.30;56.90;;;;;;4990081;28;19918;-81
2021/04/15 09:18:06;;;;;;;;;;;17.30;56.80;;;;;;4972406;28;19953;-81
2021/04/15 09:20:41;;;;;;;;;;;17.30;56.70;;;;;;4982052;28;19918;-80
2021/04/15 09:23:19;;;;;;;;;;;17.30;56.60;;;;;;4970632;28;19959;-81
2021/04/15 09:25:55;;;;;;;;;;;17.30;56.70;;;;;;4960000;28;20014;-81
2021/04/15 09:28:26;;;;;;;;;;;17.30;56.70;;;;;;4964155;28;19914;-80
2021/04/15 09:30:53;;;;;;;;;;;17.30;56.80;;;;;;4972322;28;20005;-81
2021/04/15 09:33:29;;;;;;;;;;;17.30;56.80;;;;;;4967986;28;19976;-81
2021/04/15 09:36:02;;;;;;;;;;;17.30;56.90;;;;;;4961741;28;20032;-81
2021/04/15 09:38:32;;;;;;;;;;;17.30;57.00;;;;;;4971450;28;19949;-81
2021/04/15 09:41:13;;;;;;;;;;;17.30;57.00;;;;;;4967945;28;19976;-80
2021/04/15 09:43:42;;;;;;;;;;;17.30;57.00;;;;;;4975033;28;20390;-80
2021/04/15 09:46:16;;;;;;;;;;;17.30;57.00;;;;;;4969453;28;20371;-81
2021/04/15 09:48:54;;;;;;;;;;;17.30;57.00;;;;;;4974158;28;19922;-89
2021/04/15 09:51:25;;;;;;;;;;;17.30;56.90;;;;;;4969186;28;19922;-87
2021/04/15 09:53:51;;;;;;;;;;;17.30;56.80;;;;;;4967317;28;19926;-86
2021/04/15 09:56:35;;;;;;;;;;;17.30;56.80;;;;;;4984593;28;19915;-87
2021/04/15 09:59:13;;;;;;;;;;;17.30;56.70;;;;;;4985667;28;19937;-87
2021/04/15 10:01:40;;;;;;;;;;;17.40;56.60;;;;;;4980840;28;20275;-89
2021/04/15 10:04:27;;;;;;;;;;;17.40;56.50;;;;;;4969233;28;19922;-85
2021/04/15 10:07:19;;;;;;;;;;;17.50;56.40;;;;;;4969711;28;19914;-86
2021/04/15 10:09:59;;;;;;;;;;;17.50;56.30;;;;;;4974608;28;19981;-88
2021/04/15 10:12:43;;;;;;;;;;;17.50;56.30;;;;;;4971965;28;19918;-87
2021/04/15 10:15:13;;;;;;;;;;;17.50;56.30;;;;;;4970567;28;20017;-87
2021/04/15 10:17:45;;;;;;;;;;;17.50;56.30;;;;;;4970522;28;19914;-88
2021/04/15 10:20:35;;;;;;;;;;;17.50;56.40;;;;;;4970902;28;19925;-88
2021/04/15 10:23:07;;;;;;;;;;;17.50;56.50;;;;;;5047798;28;19918;-87
2021/04/15 10:25:46;;;;;;;;;;;17.40;56.60;;;;;;4986067;28;20027;-86
2021/04/15 10:28:38;;;;;;;;;;;17.40;56.60;;;;;;4977213;28;19917;-86
2021/04/15 10:31:27;;;;;;;;;;;17.40;56.60;;;;;;4965015;28;19918;-88
2021/04/15 10:33:53;;;;;;;;;;;17.40;56.50;;;;;;4969310;28;20000;-88
2021/04/15 10:36:18;;;;;;;;;;;17.50;56.30;;;;;;4972639;28;20005;-88
2021/04/15 10:38:50;;;;;;;;;;;17.60;56.10;;;;;;4960280;28;19929;-88
2021/04/15 10:41:54;;;;;;;;;;;17.60;56.00;;;;;;4983017;28;20415;-88
2021/04/15 10:44:19;;;;;;;;;;;17.70;55.80;;;;;;4993498;28;20135;-88
2021/04/15 10:46:47;;;;;;;;;;;17.70;55.60;;;;;;4997583;28;19929;-89
2021/04/15 10:49:25;;;;;;;;;;;17.80;55.60;;;;;;4966635;28;19914;-89
2021/04/15 10:51:56;;;;;;;;;;;17.70;55.70;;;;;;4969882;28;19918;-88
2021/04/15 10:54:25;;;;;;;;;;;17.70;55.70;;;;;;4973518;28;19930;-88
2021/04/15 10:56:56;;;;;;;;;;;17.70;55.90;;;;;;4966881;28;20283;-88
2021/04/15 10:59:32;;;;;;;;;;;17.70;55.90;;;;;;4968134;28;20013;-87
2021/04/15 11:02:34;;;;;;;;;;;17.70;56.00;;;;;;4968964;28;20438;-88
2021/04/15 11:05:20;;;;;;;;;;;17.70;56.00;;;;;;4939226;28;20001;-88
2021/04/15 11:07:46;;;;;;;;;;;17.60;56.00;;;;;;4971250;28;20337;-88
2021/04/15 11:10:23;;;;;;;;;;;17.60;56.00;;;;;;4959440;28;19954;-87
2021/04/15 11:12:49;;;;;;;;;;;17.60;56.10;;;;;;4966943;28;19918;-88
2021/04/15 11:15:22;;;;;;;;;;;17.60;56.10;;;;;;4967254;28;20021;-89
2021/04/15 11:17:48;;;;;;;;;;;17.60;56.10;;;;;;5002204;28;19937;-87
2021/04/15 11:20:19;;;;;;;;;;;17.60;56.10;;;;;;4972374;28;19914;-88
2021/04/15 11:23:11;;;;;;;;;;;17.60;56.00;;;;;;4975244;28;19941;-87
2021/04/15 11:25:41;;;;;;;;;;;17.70;55.90;;;;;;4972458;28;19914;-89
2021/04/15 11:28:27;;;;;;;;;;;17.70;55.80;;;;;;4972655;28;20021;-88
2021/04/15 11:31:15;;;;;;;;;;;17.70;55.70;;;;;;4984736;28;19914;-88
2021/04/15 11:33:49;;;;;;;;;;;17.70;55.60;;;;;;4974882;28;19925;-88
2021/04/15 11:36:14;;;;;;;;;;;17.70;55.60;;;;;;4967162;28;19938;-89
2021/04/15 11:38:41;;;;;;;;;;;17.80;55.60;;;;;;4983335;28;19914;-89
2021/04/15 11:41:15;;;;;;;;;;;17.80;55.70;;;;;;4967173;28;19924;-92
2021/04/15 11:43:40;;;;;;;;;;;17.70;55.80;;;;;;4967103;28;19921;-90
2021/04/15 11:46:25;;;;;;;;;;;17.70;55.80;;;;;;4966527;28;19949;-92
2021/04/15 11:49:12;;;;;;;;;;;17.70;55.90;;;;;;4996785;28;19937;-91
2021/04/15 11:51:40;;;;;;;;;;;17.70;55.90;;;;;;4968700;28;19914;-88
2021/04/15 11:54:13;;;;;;;;;;;17.70;55.90;;;;;;4965814;28;19965;-89
2021/04/15 11:56:39;;;;;;;;;;;17.70;55.90;;;;;;4973470;28;20352;-91
2021/04/15 11:59:24;;;;;;;;;;;17.70;56.00;;;;;;4967975;28;19921;-87
2021/04/15 12:01:51;;;;;;;;;;;17.70;55.90;;;;;;4970901;28;19997;-90
2021/04/15 12:04:21;;;;;;;;;;;17.70;56.00;;;;;;4970566;28;19921;-87
2021/04/15 12:06:53;;;;;;;;;;;17.70;55.90;;;;;;4970926;28;19914;-89
2021/04/15 12:09:21;;;;;;;;;;;17.70;56.00;;;;;;4968585;28;19914;-91
2021/04/15 12:12:16;;;;;;;;;;;17.70;56.10;;;;;;4966081;28;19922;-90
2021/04/15 12:14:42;;;;;;;;;;;17.60;56.10;;;;;;4978251;28;19949;-88
2021/04/15 12:17:24;;;;;;;;;;;17.50;56.20;;;;;;5047389;28;20379;-87
2021/04/15 12:19:53;;;;;;;;;;;17.60;56.20;;;;;;4961875;28;19972;-91
2021/04/15 12:22:25;;;;;;;;;;;17.60;56.30;;;;;;4980986;28;20001;-92
2021/04/15 12:25:10;;;;;;;;;;;17.60;56.30;;;;;;4962227;28;19918;-90
2021/04/15 12:27:36;;;;;;;;;;;17.50;56.20;;;;;;4967240;28;19914;-92
2021/04/15 12:30:11;;;;;;;;;;;17.60;56.20;;;;;;4967667;28;20008;-89
2021/04/15 12:33:01;;;;;;;;;;;17.70;56.10;;;;;;4971905;28;19918;-90
2021/04/15 12:35:32;;;;;;;;;;;17.70;56.10;;;;;;4966861;28;19933;-90
2021/04/15 12:38:10;;;;;;;;;;;17.70;56.00;;;;;;4967840;28;20359;-90
2021/04/15 12:40:40;;;;;;;;;;;17.70;56.00;;;;;;4958506;28;19915;-90
2021/04/15 12:43:09;;;;;;;;;;;17.70;55.80;;;;;;4967451;28;20735;-90
2021/04/15 12:45:38;;;;;;;;;;;17.70;55.70;;;;;;4971489;28;19914;-83
2021/04/15 12:48:04;;;;;;;;;;;17.80;55.70;;;;;;4967697;28;19921;-91
2021/04/15 12:50:30;;;;;;;;;;;17.70;55.80;;;;;;4973798;28;19914;-89
2021/04/15 12:52:56;;;;;;;;;;;17.70;56.00;;;;;;4973782;28;19918;-90
2021/04/15 12:55:23;;;;;;;;;;;17.70;56.10;;;;;;4970157;28;19922;-91
2021/04/15 12:57:49;;;;;;;;;;;17.60;56.30;;;;;;4965732;28;19959;-91
2021/04/15 13:00:18;;;;;;;;;;;17.50;56.30;;;;;;4973265;28;20004;-90
2021/04/15 13:02:44;;;;;;;;;;;17.50;56.40;;;;;;4957917;28;20036;-91
2021/04/15 13:05:12;;;;;;;;;;;17.50;56.50;;;;;;4968945;28;20012;-91
2021/04/15 13:07:42;;;;;;;;;;;17.50;56.50;;;;;;4975991;28;20367;-91
2021/04/15 13:10:13;;;;;;;;;;;17.50;56.60;;;;;;4969273;28;19972;-92
2021/04/15 13:12:40;;;;;;;;;;;17.50;56.50;;;;;;4988021;28;19925;-90
2021/04/15 13:15:24;;;;;;;;;;;17.50;56.40;;;;;;4970583;28;19918;-91
2021/04/15 13:17:56;;;;;;;;;;;17.50;56.40;;;;;;4972631;28;19968;-90
2021/04/15 13:20:24;;;;;;;;;;;17.50;56.40;;;;;;5050280;28;20013;-89
2021/04/15 13:22:54;;;;;;;;;;;17.50;56.40;;;;;;4971504;28;19914;-93
2021/04/15 13:25:25;;;;;;;;;;;17.60;56.40;;;;;;4970222;28;20455;-91
2021/04/15 13:27:57;;;;;;;;;;;17.50;56.30;;;;;;5053218;28;21493;-94
2021/04/15 13:30:26;;;;;;;;;;;17.50;56.40;;;;;;4972244;28;19930;-96
2021/04/15 13:33:10;;;;;;;;;;;17.50;56.60;;;;;;4972743;28;19922;-89
2021/04/15 13:35:35;;;;;;;;;;;17.50;56.60;;;;;;4973225;28;19925;-96
2021/04/15 13:38:01;;;;;;;;;;;17.50;56.60;;;;;;4971836;28;19922;-93
2021/04/15 13:40:27;;;;;;;;;;;17.50;56.60;;;;;;4974712;28;20352;-96
2021/04/15 13:42:53;;;;;;;;;;;17.50;56.50;;;;;;4973424;28;19921;-96
2021/04/15 13:45:45;;;;;;;;;;;17.50;56.50;;;;;;4974008;28;19914;-95
2021/04/15 13:48:31;;;;;;;;;;;17.50;56.60;;;;;;4985553;28;20295;-95
2021/04/15 13:51:15;;;;;;;;;;;17.50;56.60;;;;;;4970636;28;19964;-95
2021/04/15 13:53:59;;;;;;;;;;;17.50;56.70;;;;;;4976146;28;20268;-96
2021/04/15 13:56:27;;;;;;;;;;;17.50;56.70;;;;;;4962839;28;19925;-95
2021/04/15 13:58:53;;;;;;;;;;;17.50;56.70;;;;;;4985553;28;19918;-96
2021/04/15 14:01:29;;;;;;;;;;;17.50;56.60;;;;;;4973442;28;19914;-94
2021/04/15 14:03:55;;;;;;;;;;;17.50;56.60;;;;;;5003409;28;19986;-96
2021/04/15 14:06:22;;;;;;;;;;;17.50;56.50;;;;;;4971157;28;19946;-95
2021/04/15 14:09:02;;;;;;;;;;;17.50;56.50;;;;;;4972181;28;19918;-96
2021/04/15 14:11:28;;;;;;;;;;;17.50;56.40;;;;;;4974432;28;19921;-96
2021/04/15 14:13:55;;;;;;;;;;;17.60;56.30;;;;;;4979137;28;20282;-96
2021/04/15 14:16:20;;;;;;;;;;;17.60;56.30;;;;;;4970860;28;19925;-94
2021/04/15 14:19:03;;;;;;;;;;;17.60;56.30;;;;;;4969455;28;19914;-94
2021/04/15 14:21:31;;;;;;;;;;;17.60;56.30;;;;;;4971982;28;19922;-96
2021/04/15 14:23:58;;;;;;;;;;;17.60;56.30;;;;;;4961728;28;19918;-96
2021/04/15 14:26:52;;;;;;;;;;;17.60;56.20;;;;;;4968559;28;19914;-96
2021/04/15 14:29:23;;;;;;;;;;;17.60;56.20;;;;;;4970993;28;19981;-95
2021/04/15 14:31:52;;;;;;;;;;;17.70;56.00;;;;;;4980331;28;19954;-96
2021/04/15 14:34:28;;;;;;;;;;;17.70;56.30;;;;;;4972300;28;19940;-95
2021/04/15 14:36:58;;;;;;;;;;;17.60;56.30;;;;;;4974214;28;19921;-92
2021/04/15 14:39:32;;;;;;;;;;;17.60;56.50;;;;;;4971540;28;19914;-96
2021/04/15 14:41:59;;;;;;;;;;;17.50;56.70;;;;;;4971922;28;19922;-96
2021/04/15 14:44:25;;;;;;;;;;;17.50;56.80;;;;;;4971252;28;19914;-92
2021/04/15 14:46:51;;;;;;;;;;;17.50;57.00;;;;;;4970224;28;19949;-96